sensor_id;sensor_type;location;lat;lon;timestamp;pressure;altitude;pressure_sealevel;temperature;humidity
10099;BME280;5089;42.656;23.374;2023-02-18T00:02:21;95456.13;;;7.52;43.58
10099;BME280;5089;42.656;23.374;2023-02-18T00:05:07;95433.22;;;7.16;43.82
10099;BME280;5089;42.656;23.374;2023-02-18T01:15:13;95428.53;;;6.48;47.92
10099;BME280;5089;42.656;23.374;2023-02-18T01:17:45;95394.72;;;6.07;48.26
10099;BME280;5089;42.656;23.374;2023-02-18T01:22:59;95407.59;;;5.99;48.40
10099;BME280;5089;42.656;23.374;2023-02-18T01:25:29;95524.22;;;6.75;49.40
10099;BME280;5089;42.656;23.374;2023-02-18T01:27:57;95382.38;;;5.83;48.66
10099;BME280;5089;42.656;23.374;2023-02-18T01:30:26;95411.09;;;6.11;49.06
10099;BME280;5089;42.656;23.374;2023-02-18T01:32:59;95500.31;;;6.80;48.90
10099;BME280;5089;42.656;23.374;2023-02-18T01:35:26;95419.94;;;6.23;49.17
10099;BME280;5089;42.656;23.374;2023-02-18T01:37:54;95516.94;;;6.82;49.14
10099;BME280;5089;42.656;23.374;2023-02-18T01:40:28;95354.81;;;5.89;49.48
10099;BME280;5089;42.656;23.374;2023-02-18T01:43:16;95468.81;;;6.35;49.74
10099;BME280;5089;42.656;23.374;2023-02-18T01:46:06;95383.44;;;5.82;49.82
10099;BME280;5089;42.656;23.374;2023-02-18T01:48:40;95443.84;;;6.18;49.45
10099;BME280;5089;42.656;23.374;2023-02-18T01:51:20;95388.53;;;5.84;49.56
10099;BME280;5089;42.656;23.374;2023-02-18T01:53:53;95397.75;;;5.99;49.35
10099;BME280;5089;42.656;23.374;2023-02-18T01:56:27;95503.69;;;6.63;49.68
10099;BME280;5089;42.656;23.374;2023-02-18T01:59:03;95413.16;;;5.86;49.79
10099;BME280;5089;42.656;23.374;2023-02-18T02:08:42;95415.28;;;5.66;50.16
10099;BME280;5089;42.656;23.374;2023-02-18T02:11:34;95423.19;;;5.72;50.30
10099;BME280;5089;42.656;23.374;2023-02-18T02:14:34;95462.81;;;5.98;50.83
10099;BME280;5089;42.656;23.374;2023-02-18T02:23:51;95385.50;;;5.39;50.81
10099;BME280;5089;42.656;23.374;2023-02-18T02:27:00;95437.91;;;5.75;51.05
10099;BME280;5089;42.656;23.374;2023-02-18T02:33:31;95511.31;;;6.37;50.56
10099;BME280;5089;42.656;23.374;2023-02-18T02:36:28;95435.41;;;5.80;50.96
10099;BME280;5089;42.656;23.374;2023-02-18T02:39:18;95362.09;;;5.41;50.58
10099;BME280;5089;42.656;23.374;2023-02-18T02:41:53;95501.44;;;6.37;50.50
10099;BME280;5089;42.656;23.374;2023-02-18T02:44:56;95493.09;;;6.45;50.24
10099;BME280;5089;42.656;23.374;2023-02-18T02:50:18;95446.31;;;6.31;49.67
10099;BME280;5089;42.656;23.374;2023-02-18T03:13:36;95382.00;;;6.33;48.21
10099;BME280;5089;42.656;23.374;2023-02-18T03:16:25;95351.13;;;6.25;47.58
10099;BME280;5089;42.656;23.374;2023-02-18T03:19:38;95372.25;;;6.27;47.77
10099;BME280;5089;42.656;23.374;2023-02-18T04:06:38;95481.88;;;5.84;50.27
10099;BME280;5089;42.656;23.374;2023-02-18T04:09:05;95453.19;;;5.86;50.32
10099;BME280;5089;42.656;23.374;2023-02-18T04:11:36;95541.63;;;6.42;49.49
10099;BME280;5089;42.656;23.374;2023-02-18T04:19:23;95535.44;;;6.30;50.53
10099;BME280;5089;42.656;23.374;2023-02-18T04:22:28;95526.41;;;6.31;49.87
10099;BME280;5089;42.656;23.374;2023-02-18T05:18:40;95379.28;;;5.15;51.50
10099;BME280;5089;42.656;23.374;2023-02-18T05:21:42;95530.34;;;5.99;51.25
10099;BME280;5089;42.656;23.374;2023-02-18T06:42:12;95452.72;;;7.16;47.56
10099;BME280;5089;42.656;23.374;2023-02-18T06:45:10;95521.22;;;7.69;47.20
10099;BME280;5089;42.656;23.374;2023-02-18T06:59:46;95523.44;;;8.17;45.94
10099;BME280;5089;42.656;23.374;2023-02-18T07:02:34;95392.44;;;7.49;45.91
10099;BME280;5089;42.656;23.374;2023-02-18T07:18:16;95478.63;;;11.83;37.29
10099;BME280;5089;42.656;23.374;2023-02-18T07:20:47;95401.09;;;10.71;38.34
10099;BME280;5089;42.656;23.374;2023-02-18T07:23:26;95429.72;;;10.56;47.22
10099;BME280;5089;42.656;23.374;2023-02-18T07:31:07;95504.91;;;10.19;40.62
10099;BME280;5089;42.656;23.374;2023-02-18T07:33:38;95499.34;;;10.04;40.48
10099;BME280;5089;42.656;23.374;2023-02-18T07:38:40;95472.75;;;9.75;40.65
10099;BME280;5089;42.656;23.374;2023-02-18T07:41:13;95500.31;;;9.92;40.76
10099;BME280;5089;42.656;23.374;2023-02-18T07:43:43;95518.97;;;10.04;40.62
10099;BME280;5089;42.656;23.374;2023-02-18T07:46:10;95482.34;;;9.71;40.42
10099;BME280;5089;42.656;23.374;2023-02-18T07:48:52;95449.41;;;9.54;40.47
10099;BME280;5089;42.656;23.374;2023-02-18T07:51:20;95456.19;;;9.62;40.75
10099;BME280;5089;42.656;23.374;2023-02-18T07:53:47;95532.28;;;10.16;40.61
10099;BME280;5089;42.656;23.374;2023-02-18T07:56:14;95416.72;;;9.14;40.42
10099;BME280;5089;42.656;23.374;2023-02-18T07:58:43;95480.75;;;9.49;40.47
10099;BME280;5089;42.656;23.374;2023-02-18T08:01:11;95535.25;;;9.98;40.32
10099;BME280;5089;42.656;23.374;2023-02-18T08:03:42;95420.94;;;9.10;40.24
10099;BME280;5089;42.656;23.374;2023-02-18T08:06:31;95530.34;;;9.89;40.26
10099;BME280;5089;42.656;23.374;2023-02-18T08:08:59;95414.53;;;9.11;40.66
10099;BME280;5089;42.656;23.374;2023-02-18T08:11:46;95439.38;;;9.45;40.27
10099;BME280;5089;42.656;23.374;2023-02-18T08:14:24;95544.00;;;10.10;40.02
10099;BME280;5089;42.656;23.374;2023-02-18T08:16:51;95404.22;;;9.46;40.28
10099;BME280;5089;42.656;23.374;2023-02-18T08:19:36;95494.38;;;10.39;39.69
10099;BME280;5089;42.656;23.374;2023-02-18T08:25:18;95483.63;;;10.76;39.09
10099;BME280;5089;42.656;23.374;2023-02-18T08:27:51;95413.69;;;10.66;39.31
10099;BME280;5089;42.656;23.374;2023-02-18T08:30:29;95394.22;;;10.95;38.37
10099;BME280;5089;42.656;23.374;2023-02-18T08:32:58;95392.00;;;11.39;37.83
10099;BME280;5089;42.656;23.374;2023-02-18T08:35:27;95414.69;;;11.64;37.03
10099;BME280;5089;42.656;23.374;2023-02-18T08:37:55;95405.84;;;11.68;36.51
10099;BME280;5089;42.656;23.374;2023-02-18T08:40:47;95389.69;;;11.63;35.92
10099;BME280;5089;42.656;23.374;2023-02-18T08:43:15;95415.09;;;11.97;35.79
10099;BME280;5089;42.656;23.374;2023-02-18T08:45:43;95415.66;;;12.04;35.18
10099;BME280;5089;42.656;23.374;2023-02-18T08:48:12;95382.09;;;11.55;35.59
10099;BME280;5089;42.656;23.374;2023-02-18T08:50:40;95362.09;;;11.31;35.66
10099;BME280;5089;42.656;23.374;2023-02-18T08:53:08;95461.97;;;11.96;36.14
10099;BME280;5089;42.656;23.374;2023-02-18T08:55:46;95435.53;;;11.88;35.98
10099;BME280;5089;42.656;23.374;2023-02-18T08:58:14;95374.06;;;11.60;35.56
10099;BME280;5089;42.656;23.374;2023-02-18T09:00:43;95379.63;;;11.43;35.81
10099;BME280;5089;42.656;23.374;2023-02-18T09:03:12;95488.44;;;12.15;35.30
10099;BME280;5089;42.656;23.374;2023-02-18T09:05:39;95494.91;;;12.24;35.63
10099;BME280;5089;42.656;23.374;2023-02-18T09:08:07;95441.22;;;11.97;35.94
10099;BME280;5089;42.656;23.374;2023-02-18T09:10:34;95382.09;;;11.45;35.84
10099;BME280;5089;42.656;23.374;2023-02-18T09:13:07;95381.00;;;11.46;35.77
10099;BME280;5089;42.656;23.374;2023-02-18T09:15:34;95452.66;;;11.57;36.10
10099;BME280;5089;42.656;23.374;2023-02-18T09:18:01;95484.06;;;11.93;36.39
10099;BME280;5089;42.656;23.374;2023-02-18T09:20:31;95515.91;;;12.12;36.49
10099;BME280;5089;42.656;23.374;2023-02-18T09:22:58;95477.66;;;12.20;36.56
10099;BME280;5089;42.656;23.374;2023-02-18T09:25:28;95452.88;;;12.38;36.35
10099;BME280;5089;42.656;23.374;2023-02-18T09:27:55;95498.72;;;12.93;36.05
10099;BME280;5089;42.656;23.374;2023-02-18T09:30:48;95495.50;;;13.22;35.44
10099;BME280;5089;42.656;23.374;2023-02-18T09:33:26;95388.09;;;12.98;34.89
10099;BME280;5089;42.656;23.374;2023-02-18T09:46:22;95484.47;;;15.43;32.60
10099;BME280;5089;42.656;23.374;2023-02-18T09:49:13;95387.13;;;15.27;32.01
10099;BME280;5089;42.656;23.374;2023-02-18T09:52:23;95382.53;;;15.52;31.00
10099;BME280;5089;42.656;23.374;2023-02-18T09:55:22;95470.44;;;16.68;31.12
10099;BME280;5089;42.656;23.374;2023-02-18T09:58:07;95379.84;;;16.26;29.74
10099;BME280;5089;42.656;23.374;2023-02-18T10:00:58;95477.94;;;16.89;29.06
10099;BME280;5089;42.656;23.374;2023-02-18T10:10:39;95366.69;;;16.01;29.90
10099;BME280;5089;42.656;23.374;2023-02-18T10:13:24;95344.09;;;16.24;30.18
10099;BME280;5089;42.656;23.374;2023-02-18T10:16:01;95416.91;;;17.19;29.72
10099;BME280;5089;42.656;23.374;2023-02-18T10:18:42;95444.31;;;17.91;28.46
10099;BME280;5089;42.656;23.374;2023-02-18T10:21:37;95346.44;;;17.77;27.83
10099;BME280;5089;42.656;23.374;2023-02-18T10:24:18;95347.69;;;18.29;27.28
10099;BME280;5089;42.656;23.374;2023-02-18T10:27:22;95451.50;;;19.39;26.71
10099;BME280;5089;42.656;23.374;2023-02-18T10:33:29;95418.28;;;20.24;25.93
10099;BME280;5089;42.656;23.374;2023-02-18T10:36:24;95369.34;;;19.62;24.92
10099;BME280;5089;42.656;23.374;2023-02-18T10:39:30;95319.72;;;19.43;25.49
10099;BME280;5089;42.656;23.374;2023-02-18T10:42:25;95310.16;;;19.80;24.75
10099;BME280;5089;42.656;23.374;2023-02-18T10:47:36;95399.78;;;21.07;24.64
10099;BME280;5089;42.656;23.374;2023-02-18T10:50:26;95294.66;;;20.15;23.47
10099;BME280;5089;42.656;23.374;2023-02-18T11:09:02;95324.69;;;20.58;22.74
10099;BME280;5089;42.656;23.374;2023-02-18T11:11:43;95276.19;;;20.03;23.42
10099;BME280;5089;42.656;23.374;2023-02-18T11:14:15;95352.16;;;20.44;23.46
10099;BME280;5089;42.656;23.374;2023-02-18T11:16:45;95243.59;;;19.90;23.56
10099;BME280;5089;42.656;23.374;2023-02-18T11:19:32;95285.84;;;20.27;23.21
10099;BME280;5089;42.656;23.374;2023-02-18T11:22:16;95346.34;;;20.37;23.46
10099;BME280;5089;42.656;23.374;2023-02-18T11:24:47;95293.97;;;20.01;23.63
10099;BME280;5089;42.656;23.374;2023-02-18T11:29:53;95261.53;;;19.73;23.53
10099;BME280;5089;42.656;23.374;2023-02-18T11:32:35;95214.53;;;19.42;23.66
10099;BME280;5089;42.656;23.374;2023-02-18T13:18:11;95210.63;;;18.47;26.37
10099;BME280;5089;42.656;23.374;2023-02-18T13:20:43;95201.88;;;18.50;26.00
10099;BME280;5089;42.656;23.374;2023-02-18T13:23:17;95193.06;;;18.31;26.09
10099;BME280;5089;42.656;23.374;2023-02-18T13:25:46;95148.84;;;18.17;26.16
10099;BME280;5089;42.656;23.374;2023-02-18T13:28:20;95196.41;;;18.50;25.90
10099;BME280;5089;42.656;23.374;2023-02-18T13:30:53;95207.66;;;18.57;26.10
10099;BME280;5089;42.656;23.374;2023-02-18T13:33:31;95210.41;;;18.35;26.03
10099;BME280;5089;42.656;23.374;2023-02-18T13:36:05;95185.94;;;18.13;26.08
10099;BME280;5089;42.656;23.374;2023-02-18T13:38:59;95175.41;;;18.20;26.09
10099;BME280;5089;42.656;23.374;2023-02-18T13:41:29;95188.88;;;18.25;26.33
10099;BME280;5089;42.656;23.374;2023-02-18T13:44:00;95211.81;;;18.33;26.27
10099;BME280;5089;42.656;23.374;2023-02-18T13:46:26;95206.00;;;18.26;26.92
10099;BME280;5089;42.656;23.374;2023-02-18T13:49:04;95201.47;;;18.13;27.30
10099;BME280;5089;42.656;23.374;2023-02-18T13:51:32;95211.59;;;17.98;27.73
10099;BME280;5089;42.656;23.374;2023-02-18T13:54:07;95204.56;;;17.97;28.06
10099;BME280;5089;42.656;23.374;2023-02-18T13:56:43;95142.34;;;17.38;28.50
10099;BME280;5089;42.656;23.374;2023-02-18T13:59:16;95165.28;;;17.45;28.76
10099;BME280;5089;42.656;23.374;2023-02-18T14:01:50;95194.25;;;17.50;28.99
10099;BME280;5089;42.656;23.374;2023-02-18T14:04:39;95199.25;;;17.34;29.41
10099;BME280;5089;42.656;23.374;2023-02-18T14:07:24;95197.63;;;17.33;29.56
10099;BME280;5089;42.656;23.374;2023-02-18T14:09:52;95144.69;;;16.95;29.51
10099;BME280;5089;42.656;23.374;2023-02-18T14:12:35;95154.16;;;16.84;29.46
10099;BME280;5089;42.656;23.374;2023-02-18T14:18:23;95193.28;;;16.69;30.06
10099;BME280;5089;42.656;23.374;2023-02-18T14:21:03;95204.94;;;16.70;30.12
10099;BME280;5089;42.656;23.374;2023-02-18T14:24:05;95188.13;;;16.40;30.25
10099;BME280;5089;42.656;23.374;2023-02-18T14:26:36;95187.59;;;16.25;30.70
10099;BME280;5089;42.656;23.374;2023-02-18T14:29:06;95202.13;;;16.29;30.74
10099;BME280;5089;42.656;23.374;2023-02-18T14:31:40;95177.22;;;16.13;30.90
10099;BME280;5089;42.656;23.374;2023-02-18T14:37:28;95173.09;;;15.70;31.51
10099;BME280;5089;42.656;23.374;2023-02-18T14:40:13;95211.72;;;15.94;31.28
10099;BME280;5089;42.656;23.374;2023-02-18T14:42:46;95207.84;;;15.81;31.52
10099;BME280;5089;42.656;23.374;2023-02-18T14:45:31;95206.97;;;15.86;31.51
10099;BME280;5089;42.656;23.374;2023-02-18T14:48:18;95179.19;;;15.62;31.57
10099;BME280;5089;42.656;23.374;2023-02-18T14:50:51;95206.03;;;15.77;31.88
10099;BME280;5089;42.656;23.374;2023-02-18T14:53:23;95197.16;;;15.71;31.85
10099;BME280;5089;42.656;23.374;2023-02-18T14:55:56;95193.88;;;15.74;31.96
10099;BME280;5089;42.656;23.374;2023-02-18T14:58:28;95195.34;;;15.67;32.04
10099;BME280;5089;42.656;23.374;2023-02-18T15:00:56;95184.94;;;15.74;32.13
10099;BME280;5089;42.656;23.374;2023-02-18T15:03:26;95191.16;;;15.74;32.29
10099;BME280;5089;42.656;23.374;2023-02-18T15:05:52;95187.91;;;15.59;32.54
10099;BME280;5089;42.656;23.374;2023-02-18T15:08:22;95185.69;;;15.61;32.45
10099;BME280;5089;42.656;23.374;2023-02-18T15:10:52;95169.59;;;15.51;32.50
10099;BME280;5089;42.656;23.374;2023-02-18T15:13:25;95185.47;;;15.38;32.87
10099;BME280;5089;42.656;23.374;2023-02-18T15:16:12;95154.94;;;15.14;32.80
10099;BME280;5089;42.656;23.374;2023-02-18T15:18:41;95192.81;;;15.38;32.96
10099;BME280;5089;42.656;23.374;2023-02-18T15:21:17;95163.84;;;14.96;33.24
10099;BME280;5089;42.656;23.374;2023-02-18T15:23:47;95172.16;;;15.05;33.42
10099;BME280;5089;42.656;23.374;2023-02-18T15:26:15;95177.78;;;15.08;33.18
10099;BME280;5089;42.656;23.374;2023-02-18T15:28:55;95182.59;;;15.11;33.47
10099;BME280;5089;42.656;23.374;2023-02-18T15:31:25;95184.94;;;14.99;33.48
10099;BME280;5089;42.656;23.374;2023-02-18T15:33:52;95173.91;;;14.96;33.79
10099;BME280;5089;42.656;23.374;2023-02-18T15:36:19;95158.53;;;14.91;33.92
10099;BME280;5089;42.656;23.374;2023-02-18T15:38:47;95156.41;;;14.88;33.80
10099;BME280;5089;42.656;23.374;2023-02-18T15:41:15;95171.47;;;14.94;33.67
10099;BME280;5089;42.656;23.374;2023-02-18T15:43:52;95158.88;;;14.84;33.96
10099;BME280;5089;42.656;23.374;2023-02-18T15:46:20;95174.84;;;14.86;33.89
10099;BME280;5089;42.656;23.374;2023-02-18T15:48:51;95172.13;;;14.86;33.94
10099;BME280;5089;42.656;23.374;2023-02-18T15:51:20;95162.16;;;14.81;34.03
10099;BME280;5089;42.656;23.374;2023-02-18T15:53:51;95150.53;;;14.81;34.02
10099;BME280;5089;42.656;23.374;2023-02-18T15:56:25;95140.38;;;14.73;34.08
10099;BME280;5089;42.656;23.374;2023-02-18T15:59:06;95149.66;;;14.67;34.42
10099;BME280;5089;42.656;23.374;2023-02-18T16:01:34;95150.16;;;14.69;34.28
10099;BME280;5089;42.656;23.374;2023-02-18T16:04:01;95086.16;;;14.17;34.81
10099;BME280;5089;42.656;23.374;2023-02-18T16:06:30;95155.91;;;14.44;35.09
10099;BME280;5089;42.656;23.374;2023-02-18T16:09:02;95153.13;;;14.49;35.12
10099;BME280;5089;42.656;23.374;2023-02-18T16:11:31;95161.53;;;14.47;35.15
10099;BME280;5089;42.656;23.374;2023-02-18T16:14:00;95157.72;;;14.48;35.02
10099;BME280;5089;42.656;23.374;2023-02-18T16:16:32;95165.03;;;14.48;35.12
10099;BME280;5089;42.656;23.374;2023-02-18T16:19:00;95155.44;;;14.37;35.38
10099;BME280;5089;42.656;23.374;2023-02-18T16:21:32;95164.63;;;14.36;35.37
10099;BME280;5089;42.656;23.374;2023-02-18T16:24:22;95159.88;;;14.22;35.64
10099;BME280;5089;42.656;23.374;2023-02-18T16:26:51;95155.31;;;14.18;35.94
10099;BME280;5089;42.656;23.374;2023-02-18T16:29:22;95159.88;;;14.22;36.18
10099;BME280;5089;42.656;23.374;2023-02-18T16:31:50;95151.03;;;14.17;35.82
10099;BME280;5089;42.656;23.374;2023-02-18T16:34:17;95175.88;;;14.19;36.08
10099;BME280;5089;42.656;23.374;2023-02-18T16:36:44;95171.88;;;14.11;36.19
10099;BME280;5089;42.656;23.374;2023-02-18T16:39:33;95173.00;;;14.10;36.29
10099;BME280;5089;42.656;23.374;2023-02-18T16:42:00;95180.69;;;13.98;36.63
10099;BME280;5089;42.656;23.374;2023-02-18T16:44:27;95137.06;;;13.81;36.48
10099;BME280;5089;42.656;23.374;2023-02-18T16:46:55;95182.50;;;14.03;36.64
10099;BME280;5089;42.656;23.374;2023-02-18T16:49:23;95184.34;;;13.84;37.00
10099;BME280;5089;42.656;23.374;2023-02-18T16:51:49;95165.75;;;13.77;36.90
10099;BME280;5089;42.656;23.374;2023-02-18T16:54:17;95174.78;;;13.91;37.09
10099;BME280;5089;42.656;23.374;2023-02-18T16:56:45;95175.94;;;13.85;37.04
10099;BME280;5089;42.656;23.374;2023-02-18T16:59:12;95181.34;;;13.85;36.98
10099;BME280;5089;42.656;23.374;2023-02-18T17:01:41;95176.78;;;13.81;37.18
10099;BME280;5089;42.656;23.374;2023-02-18T17:04:11;95131.34;;;13.54;37.09
10099;BME280;5089;42.656;23.374;2023-02-18T17:06:38;95181.66;;;13.79;37.30
10099;BME280;5089;42.656;23.374;2023-02-18T17:09:12;95190.56;;;13.79;37.20
10099;BME280;5089;42.656;23.374;2023-02-18T17:11:43;95185.78;;;13.71;37.43
10099;BME280;5089;42.656;23.374;2023-02-18T17:14:14;95172.84;;;13.68;37.35
10099;BME280;5089;42.656;23.374;2023-02-18T17:16:42;95184.41;;;13.73;37.17
10099;BME280;5089;42.656;23.374;2023-02-18T17:19:09;95159.66;;;13.61;37.20
10099;BME280;5089;42.656;23.374;2023-02-18T17:21:36;95184.72;;;13.67;37.42
10099;BME280;5089;42.656;23.374;2023-02-18T17:24:03;95140.06;;;13.46;37.30
10099;BME280;5089;42.656;23.374;2023-02-18T17:26:31;95176.13;;;13.65;37.23
10099;BME280;5089;42.656;23.374;2023-02-18T17:28:59;95170.22;;;13.58;37.75
10099;BME280;5089;42.656;23.374;2023-02-18T17:31:29;95185.31;;;13.64;37.65
10099;BME280;5089;42.656;23.374;2023-02-18T17:34:00;95174.25;;;13.60;37.42
10099;BME280;5089;42.656;23.374;2023-02-18T17:36:27;95184.66;;;13.77;37.09
10099;BME280;5089;42.656;23.374;2023-02-18T17:38:54;95153.53;;;13.51;37.18
10099;BME280;5089;42.656;23.374;2023-02-18T17:41:22;95170.16;;;13.63;37.07
10099;BME280;5089;42.656;23.374;2023-02-18T17:43:49;95174.66;;;13.78;37.25
10099;BME280;5089;42.656;23.374;2023-02-18T17:46:18;95171.16;;;13.72;36.81
10099;BME280;5089;42.656;23.374;2023-02-18T17:49:00;95177.78;;;13.90;36.75
10099;BME280;5089;42.656;23.374;2023-02-18T17:51:27;95181.28;;;13.90;36.76
10099;BME280;5089;42.656;23.374;2023-02-18T17:53:55;95186.31;;;14.02;36.86
10099;BME280;5089;42.656;23.374;2023-02-18T17:56:22;95170.75;;;13.89;37.11
10099;BME280;5089;42.656;23.374;2023-02-18T17:58:49;95166.25;;;13.79;37.39
10099;BME280;5089;42.656;23.374;2023-02-18T18:01:16;95145.03;;;13.67;37.19
10099;BME280;5089;42.656;23.374;2023-02-18T18:03:45;95156.59;;;13.73;37.44
10099;BME280;5089;42.656;23.374;2023-02-18T18:06:16;95177.63;;;13.76;37.31
10099;BME280;5089;42.656;23.374;2023-02-18T18:08:43;95164.25;;;13.61;37.38
10099;BME280;5089;42.656;23.374;2023-02-18T18:11:13;95157.78;;;13.62;37.36
10099;BME280;5089;42.656;23.374;2023-02-18T18:13:40;95175.00;;;13.66;37.59
10099;BME280;5089;42.656;23.374;2023-02-18T18:16:08;95183.09;;;13.71;37.37
10099;BME280;5089;42.656;23.374;2023-02-18T18:18:35;95165.19;;;13.75;37.47
10099;BME280;5089;42.656;23.374;2023-02-18T18:21:05;95124.94;;;13.50;37.26
10099;BME280;5089;42.656;23.374;2023-02-18T18:23:38;95177.88;;;13.80;37.25
10099;BME280;5089;42.656;23.374;2023-02-18T18:26:05;95154.19;;;13.71;37.35
10099;BME280;5089;42.656;23.374;2023-02-18T18:28:32;95167.63;;;13.77;37.23
10099;BME280;5089;42.656;23.374;2023-02-18T18:41:37;95078.06;;;13.02;37.29
10099;BME280;5089;42.656;23.374;2023-02-18T18:44:18;95082.00;;;13.19;37.35
10099;BME280;5089;42.656;23.374;2023-02-18T18:46:59;95036.28;;;12.94;37.51
10099;BME280;5089;42.656;23.374;2023-02-18T18:49:43;95101.09;;;13.28;37.78
10099;BME280;5089;42.656;23.374;2023-02-18T18:52:30;95052.56;;;12.84;37.75
10099;BME280;5089;42.656;23.374;2023-02-18T18:55:01;95102.03;;;13.08;38.02
10099;BME280;5089;42.656;23.374;2023-02-18T19:29:07;95152.75;;;13.06;39.63
10099;BME280;5089;42.656;23.374;2023-02-18T19:31:38;95034.06;;;12.19;39.35
10099;BME280;5089;42.656;23.374;2023-02-18T19:47:22;95070.22;;;12.18;39.00
10099;BME280;5089;42.656;23.374;2023-02-18T20:29:44;95160.00;;;12.67;40.09
10099;BME280;5089;42.656;23.374;2023-02-18T20:32:35;95131.59;;;12.26;40.01
10099;BME280;5089;42.656;23.374;2023-02-18T20:35:22;95105.78;;;12.09;40.44
10099;BME280;5089;42.656;23.374;2023-02-18T20:38:16;95079.50;;;11.76;40.67
10099;BME280;5089;42.656;23.374;2023-02-18T20:40:53;95167.72;;;12.25;40.79
10099;BME280;5089;42.656;23.374;2023-02-18T20:43:41;95147.88;;;11.95;40.77
10099;BME280;5089;42.656;23.374;2023-02-18T20:46:20;95074.41;;;11.70;40.95
10099;BME280;5089;42.656;23.374;2023-02-18T20:48:54;95162.88;;;12.22;40.78
10099;BME280;5089;42.656;23.374;2023-02-18T20:51:36;95054.81;;;11.29;41.23
10099;BME280;5089;42.656;23.374;2023-02-18T20:54:06;95160.47;;;12.10;40.98
10099;BME280;5089;42.656;23.374;2023-02-18T20:56:40;95035.97;;;11.29;41.14
10099;BME280;5089;42.656;23.374;2023-02-18T20:59:29;95178.25;;;12.16;40.80
10099;BME280;5089;42.656;23.374;2023-02-18T21:02:20;95168.84;;;12.08;41.35
10099;BME280;5089;42.656;23.374;2023-02-18T21:05:07;95185.00;;;12.03;41.55
10099;BME280;5089;42.656;23.374;2023-02-18T21:08:13;95118.00;;;11.77;41.47
10099;BME280;5089;42.656;23.374;2023-02-18T21:11:06;95179.66;;;11.98;41.84
10099;BME280;5089;42.656;23.374;2023-02-18T21:14:01;95039.22;;;11.16;41.94
10099;BME280;5089;42.656;23.374;2023-02-18T21:20:02;95027.94;;;11.09;42.02
10099;BME280;5089;42.656;23.374;2023-02-18T21:22:46;95166.75;;;11.90;42.23
10099;BME280;5089;42.656;23.374;2023-02-18T21:25:29;95181.28;;;11.79;42.20
10099;BME280;5089;42.656;23.374;2023-02-18T21:27:58;95126.38;;;11.45;42.60
10099;BME280;5089;42.656;23.374;2023-02-18T21:30:33;95037.88;;;10.83;42.61
10099;BME280;5089;42.656;23.374;2023-02-18T23:56:28;95050.97;;;10.24;45.13
